Kenner, Louisiana
Current Conditions -  °F | °C
As of 4:53 AM on Friday 28 Nov 2014 (Local Time) from KMSY Reporting Station
Clear Clear  
Wind Chill: 40°   Ceiling: Unl
Heat Index: 44°   Visibility: 10mi
Dew Point: 34°   Wind: 8mph
Humidity: 68%   Direction: 80°E
Pressure: 30.42"   Gusts: NA
Location:  29.99°N, 90.24°W
Report Text: KMSY 281053Z 08007KT 10SM CLR 07/01 A3042 RMK AO2 SLP304 T00670011
Loading
Personal Weather Stations






























Interactive Weather Map New forecast layout! Learn more

10-Day Weather Forecast

Advertisements
Track Severe Weather on mobile